sensor_id;sensor_type;location;lat;lon;timestamp;temperature;humidity
16625;DHT22;8426;48.496;9.098;2022-08-21T00:04:52;13.80;99.90
16625;DHT22;8426;48.496;9.098;2022-08-21T00:09:58;13.70;99.90
16625;DHT22;8426;48.496;9.098;2022-08-21T00:15:03;13.60;99.90
16625;DHT22;8426;48.496;9.098;2022-08-21T00:20:12;13.50;99.90
16625;DHT22;8426;48.496;9.098;2022-08-21T00:25:17;13.40;99.90
16625;DHT22;8426;48.496;9.098;2022-08-21T00:30:31;13.30;99.90
16625;DHT22;8426;48.496;9.098;2022-08-21T00:35:41;13.30;99.90
16625;DHT22;8426;48.496;9.098;2022-08-21T00:40:47;13.20;99.90
16625;DHT22;8426;48.496;9.098;2022-08-21T00:45:52;13.10;99.90
16625;DHT22;8426;48.496;9.098;2022-08-21T00:51:24;13.20;99.90
16625;DHT22;8426;48.496;9.098;2022-08-21T00:56:28;13.10;99.90
16625;DHT22;8426;48.496;9.098;2022-08-21T01:01:33;12.90;99.90
16625;DHT22;8426;48.496;9.098;2022-08-21T01:06:36;12.90;99.90
16625;DHT22;8426;48.496;9.098;2022-08-21T01:11:40;12.80;99.90
16625;DHT22;8426;48.496;9.098;2022-08-21T01:16:48;12.80;99.90
16625;DHT22;8426;48.496;9.098;2022-08-21T01:21:54;12.70;99.90
16625;DHT22;8426;48.496;9.098;2022-08-21T01:26:59;12.70;99.90
16625;DHT22;8426;48.496;9.098;2022-08-21T01:32:05;12.70;99.90
16625;DHT22;8426;48.496;9.098;2022-08-21T01:37:11;12.60;99.90
16625;DHT22;8426;48.496;9.098;2022-08-21T01:42:15;12.50;99.90
16625;DHT22;8426;48.496;9.098;2022-08-21T01:47:19;12.50;99.90
16625;DHT22;8426;48.496;9.098;2022-08-21T01:52:24;12.40;99.90
16625;DHT22;8426;48.496;9.098;2022-08-21T01:57:27;12.40;99.90
16625;DHT22;8426;48.496;9.098;2022-08-21T02:02:31;12.30;99.90
16625;DHT22;8426;48.496;9.098;2022-08-21T02:07:38;12.20;99.90
16625;DHT22;8426;48.496;9.098;2022-08-21T02:12:42;12.10;99.90
16625;DHT22;8426;48.496;9.098;2022-08-21T02:17:47;12.00;99.90
16625;DHT22;8426;48.496;9.098;2022-08-21T02:22:52;12.00;99.90
16625;DHT22;8426;48.496;9.098;2022-08-21T02:27:57;11.90;99.90
16625;DHT22;8426;48.496;9.098;2022-08-21T02:33:02;11.90;99.90
16625;DHT22;8426;48.496;9.098;2022-08-21T02:38:09;11.80;99.90
16625;DHT22;8426;48.496;9.098;2022-08-21T02:43:14;11.90;99.90
16625;DHT22;8426;48.496;9.098;2022-08-21T02:48:21;11.80;99.90
16625;DHT22;8426;48.496;9.098;2022-08-21T02:53:27;11.70;99.90
16625;DHT22;8426;48.496;9.098;2022-08-21T02:58:38;11.60;99.90
16625;DHT22;8426;48.496;9.098;2022-08-21T03:03:43;11.60;99.90
16625;DHT22;8426;48.496;9.098;2022-08-21T03:08:48;11.70;99.90
16625;DHT22;8426;48.496;9.098;2022-08-21T03:13:52;11.60;99.90
16625;DHT22;8426;48.496;9.098;2022-08-21T03:18:56;11.60;99.90
16625;DHT22;8426;48.496;9.098;2022-08-21T03:24:00;11.60;99.90
16625;DHT22;8426;48.496;9.098;2022-08-21T03:29:05;11.60;99.90
16625;DHT22;8426;48.496;9.098;2022-08-21T03:34:09;11.60;99.90
16625;DHT22;8426;48.496;9.098;2022-08-21T03:39:14;11.60;99.90
16625;DHT22;8426;48.496;9.098;2022-08-21T03:44:19;11.50;99.90
16625;DHT22;8426;48.496;9.098;2022-08-21T03:49:22;11.50;99.90
16625;DHT22;8426;48.496;9.098;2022-08-21T03:54:27;11.40;99.90
16625;DHT22;8426;48.496;9.098;2022-08-21T03:59:30;11.40;99.90
16625;DHT22;8426;48.496;9.098;2022-08-21T04:04:34;11.40;99.90
16625;DHT22;8426;48.496;9.098;2022-08-21T04:09:39;11.30;99.90
16625;DHT22;8426;48.496;9.098;2022-08-21T04:14:42;11.20;99.90
16625;DHT22;8426;48.496;9.098;2022-08-21T04:19:46;11.10;99.90
16625;DHT22;8426;48.496;9.098;2022-08-21T04:24:55;11.10;99.90
16625;DHT22;8426;48.496;9.098;2022-08-21T04:29:59;11.10;99.90
16625;DHT22;8426;48.496;9.098;2022-08-21T04:35:05;11.00;99.90
16625;DHT22;8426;48.496;9.098;2022-08-21T04:40:12;11.00;99.90
16625;DHT22;8426;48.496;9.098;2022-08-21T04:45:18;11.10;99.90
16625;DHT22;8426;48.496;9.098;2022-08-21T04:50:26;11.00;99.90
16625;DHT22;8426;48.496;9.098;2022-08-21T04:55:32;11.10;99.90
16625;DHT22;8426;48.496;9.098;2022-08-21T05:00:36;11.20;99.90
16625;DHT22;8426;48.496;9.098;2022-08-21T05:05:39;11.20;99.90
16625;DHT22;8426;48.496;9.098;2022-08-21T05:10:45;11.40;99.90
16625;DHT22;8426;48.496;9.098;2022-08-21T05:15:49;11.60;99.90
16625;DHT22;8426;48.496;9.098;2022-08-21T05:20:52;11.80;99.90
16625;DHT22;8426;48.496;9.098;2022-08-21T05:25:57;11.90;99.90
16625;DHT22;8426;48.496;9.098;2022-08-21T05:31:00;12.10;99.90
16625;DHT22;8426;48.496;9.098;2022-08-21T05:36:04;12.20;99.90
16625;DHT22;8426;48.496;9.098;2022-08-21T05:41:08;12.50;99.90
16625;DHT22;8426;48.496;9.098;2022-08-21T05:46:12;12.70;99.90
16625;DHT22;8426;48.496;9.098;2022-08-21T05:51:15;12.80;99.90
16625;DHT22;8426;48.496;9.098;2022-08-21T05:56:20;13.00;99.90
16625;DHT22;8426;48.496;9.098;2022-08-21T06:01:24;13.20;99.90
16625;DHT22;8426;48.496;9.098;2022-08-21T06:06:27;13.40;99.90
16625;DHT22;8426;48.496;9.098;2022-08-21T06:11:32;13.60;99.90
16625;DHT22;8426;48.496;9.098;2022-08-21T06:16:36;13.80;99.90
16625;DHT22;8426;48.496;9.098;2022-08-21T06:21:39;14.00;99.90
16625;DHT22;8426;48.496;9.098;2022-08-21T06:26:49;14.20;99.90
16625;DHT22;8426;48.496;9.098;2022-08-21T06:31:52;16.90;99.90
16625;DHT22;8426;48.496;9.098;2022-08-21T06:36:56;21.70;99.90
16625;DHT22;8426;48.496;9.098;2022-08-21T06:42:01;25.90;99.90
16625;DHT22;8426;48.496;9.098;2022-08-21T06:47:04;27.60;99.90
16625;DHT22;8426;48.496;9.098;2022-08-21T06:52:09;28.60;99.90
16625;DHT22;8426;48.496;9.098;2022-08-21T06:57:15;29.90;99.50
16625;DHT22;8426;48.496;9.098;2022-08-21T07:02:21;31.40;96.90
16625;DHT22;8426;48.496;9.098;2022-08-21T07:07:25;32.40;94.20
16625;DHT22;8426;48.496;9.098;2022-08-21T07:12:30;32.20;93.00
16625;DHT22;8426;48.496;9.098;2022-08-21T07:17:34;32.90;91.70
16625;DHT22;8426;48.496;9.098;2022-08-21T07:22:38;34.40;88.60
16625;DHT22;8426;48.496;9.098;2022-08-21T07:27:43;33.20;88.60
16625;DHT22;8426;48.496;9.098;2022-08-21T07:32:46;33.70;87.70
16625;DHT22;8426;48.496;9.098;2022-08-21T07:37:51;34.80;85.40
16625;DHT22;8426;48.496;9.098;2022-08-21T07:42:55;34.80;84.60
16625;DHT22;8426;48.496;9.098;2022-08-21T07:47:59;33.50;85.70
16625;DHT22;8426;48.496;9.098;2022-08-21T07:53:02;32.60;90.10
16625;DHT22;8426;48.496;9.098;2022-08-21T07:58:08;31.50;91.00
16625;DHT22;8426;48.496;9.098;2022-08-21T08:03:11;33.00;88.60
16625;DHT22;8426;48.496;9.098;2022-08-21T08:08:21;32.00;89.00
16625;DHT22;8426;48.496;9.098;2022-08-21T08:13:25;32.30;87.40
16625;DHT22;8426;48.496;9.098;2022-08-21T08:18:29;34.10;83.20
16625;DHT22;8426;48.496;9.098;2022-08-21T08:23:32;34.10;81.60
16625;DHT22;8426;48.496;9.098;2022-08-21T08:28:37;32.70;85.10
16625;DHT22;8426;48.496;9.098;2022-08-21T08:33:41;33.70;81.50
16625;DHT22;8426;48.496;9.098;2022-08-21T08:38:49;33.00;80.80
16625;DHT22;8426;48.496;9.098;2022-08-21T08:43:57;33.20;82.70
16625;DHT22;8426;48.496;9.098;2022-08-21T08:49:09;32.90;83.40
16625;DHT22;8426;48.496;9.098;2022-08-21T08:54:27;33.20;82.00
16625;DHT22;8426;48.496;9.098;2022-08-21T08:59:39;33.20;81.10
16625;DHT22;8426;48.496;9.098;2022-08-21T09:04:47;32.70;80.50
16625;DHT22;8426;48.496;9.098;2022-08-21T09:10:06;32.20;83.20
16625;DHT22;8426;48.496;9.098;2022-08-21T09:15:21;32.80;81.40
16625;DHT22;8426;48.496;9.098;2022-08-21T09:20:32;33.30;80.90
16625;DHT22;8426;48.496;9.098;2022-08-21T09:25:43;33.10;80.00
16625;DHT22;8426;48.496;9.098;2022-08-21T09:30:50;32.30;84.40
16625;DHT22;8426;48.496;9.098;2022-08-21T09:35:57;32.10;82.70
16625;DHT22;8426;48.496;9.098;2022-08-21T09:41:03;32.60;79.60
16625;DHT22;8426;48.496;9.098;2022-08-21T09:46:10;31.90;81.20
16625;DHT22;8426;48.496;9.098;2022-08-21T09:51:16;31.90;80.20
16625;DHT22;8426;48.496;9.098;2022-08-21T09:56:28;32.00;75.30
16625;DHT22;8426;48.496;9.098;2022-08-21T10:01:53;31.60;75.50
16625;DHT22;8426;48.496;9.098;2022-08-21T10:07:08;32.30;76.50
16625;DHT22;8426;48.496;9.098;2022-08-21T10:12:19;31.00;78.20
16625;DHT22;8426;48.496;9.098;2022-08-21T10:17:33;29.70;85.20
16625;DHT22;8426;48.496;9.098;2022-08-21T10:22:43;29.20;83.10
16625;DHT22;8426;48.496;9.098;2022-08-21T10:28:00;29.10;86.80
16625;DHT22;8426;48.496;9.098;2022-08-21T10:33:26;28.50;86.90
16625;DHT22;8426;48.496;9.098;2022-08-21T10:38:59;28.10;84.50
16625;DHT22;8426;48.496;9.098;2022-08-21T10:44:38;28.50;85.80
16625;DHT22;8426;48.496;9.098;2022-08-21T10:49:52;28.20;83.20
16625;DHT22;8426;48.496;9.098;2022-08-21T10:55:04;28.50;87.70
16625;DHT22;8426;48.496;9.098;2022-08-21T11:00:12;28.70;84.90
16625;DHT22;8426;48.496;9.098;2022-08-21T11:05:26;28.60;85.40
16625;DHT22;8426;48.496;9.098;2022-08-21T11:10:39;29.10;86.00
16625;DHT22;8426;48.496;9.098;2022-08-21T11:16:03;28.90;81.80
16625;DHT22;8426;48.496;9.098;2022-08-21T11:21:25;28.90;82.10
16625;DHT22;8426;48.496;9.098;2022-08-21T11:26:34;28.50;82.00
16625;DHT22;8426;48.496;9.098;2022-08-21T11:31:52;28.40;86.70
16625;DHT22;8426;48.496;9.098;2022-08-21T11:37:05;28.40;85.30
16625;DHT22;8426;48.496;9.098;2022-08-21T11:42:19;28.80;84.50
16625;DHT22;8426;48.496;9.098;2022-08-21T11:47:33;28.70;89.00
16625;DHT22;8426;48.496;9.098;2022-08-21T11:52:48;28.60;85.70
16625;DHT22;8426;48.496;9.098;2022-08-21T11:57:55;28.20;84.30
16625;DHT22;8426;48.496;9.098;2022-08-21T12:03:08;27.90;84.90
16625;DHT22;8426;48.496;9.098;2022-08-21T12:08:26;27.80;83.60
16625;DHT22;8426;48.496;9.098;2022-08-21T12:13:34;28.20;78.80
16625;DHT22;8426;48.496;9.098;2022-08-21T12:18:43;28.30;81.30
16625;DHT22;8426;48.496;9.098;2022-08-21T12:24:00;28.20;83.00
16625;DHT22;8426;48.496;9.098;2022-08-21T12:29:16;28.10;82.00
16625;DHT22;8426;48.496;9.098;2022-08-21T12:34:48;28.20;80.20
16625;DHT22;8426;48.496;9.098;2022-08-21T12:39:57;28.60;85.90
16625;DHT22;8426;48.496;9.098;2022-08-21T12:45:04;28.00;83.40
16625;DHT22;8426;48.496;9.098;2022-08-21T12:50:11;28.20;85.30
16625;DHT22;8426;48.496;9.098;2022-08-21T12:55:26;28.00;82.60
16625;DHT22;8426;48.496;9.098;2022-08-21T13:00:30;27.90;83.80
16625;DHT22;8426;48.496;9.098;2022-08-21T13:05:35;28.20;84.40
16625;DHT22;8426;48.496;9.098;2022-08-21T13:10:41;27.90;82.00
16625;DHT22;8426;48.496;9.098;2022-08-21T13:15:46;28.00;82.20
16625;DHT22;8426;48.496;9.098;2022-08-21T13:20:51;28.00;82.00
16625;DHT22;8426;48.496;9.098;2022-08-21T13:25:57;28.10;82.90
16625;DHT22;8426;48.496;9.098;2022-08-21T13:31:00;28.20;81.60
16625;DHT22;8426;48.496;9.098;2022-08-21T13:36:07;28.20;80.50
16625;DHT22;8426;48.496;9.098;2022-08-21T13:41:20;27.60;81.80
16625;DHT22;8426;48.496;9.098;2022-08-21T13:46:26;27.50;82.00
16625;DHT22;8426;48.496;9.098;2022-08-21T13:51:31;27.50;81.60
16625;DHT22;8426;48.496;9.098;2022-08-21T13:56:44;27.60;83.60
16625;DHT22;8426;48.496;9.098;2022-08-21T14:01:50;27.90;81.70
16625;DHT22;8426;48.496;9.098;2022-08-21T14:06:56;28.10;83.20
16625;DHT22;8426;48.496;9.098;2022-08-21T14:12:11;27.70;80.20
16625;DHT22;8426;48.496;9.098;2022-08-21T14:17:32;27.50;81.60
16625;DHT22;8426;48.496;9.098;2022-08-21T14:22:44;27.40;83.90
16625;DHT22;8426;48.496;9.098;2022-08-21T14:27:51;27.40;85.20
16625;DHT22;8426;48.496;9.098;2022-08-21T14:32:55;27.60;80.70
16625;DHT22;8426;48.496;9.098;2022-08-21T14:37:59;27.70;81.60
16625;DHT22;8426;48.496;9.098;2022-08-21T14:43:04;27.50;81.50
16625;DHT22;8426;48.496;9.098;2022-08-21T14:48:07;27.30;81.60
16625;DHT22;8426;48.496;9.098;2022-08-21T14:53:10;27.30;81.30
16625;DHT22;8426;48.496;9.098;2022-08-21T14:58:15;27.30;81.90
16625;DHT22;8426;48.496;9.098;2022-08-21T15:03:19;27.30;80.20
16625;DHT22;8426;48.496;9.098;2022-08-21T15:08:25;27.20;81.20
16625;DHT22;8426;48.496;9.098;2022-08-21T15:13:30;27.00;80.90
16625;DHT22;8426;48.496;9.098;2022-08-21T15:18:34;26.80;80.00
16625;DHT22;8426;48.496;9.098;2022-08-21T15:23:40;26.90;77.00
16625;DHT22;8426;48.496;9.098;2022-08-21T15:28:46;26.80;78.40
16625;DHT22;8426;48.496;9.098;2022-08-21T15:33:49;26.80;79.40
16625;DHT22;8426;48.496;9.098;2022-08-21T15:38:53;26.70;78.60
16625;DHT22;8426;48.496;9.098;2022-08-21T15:43:57;26.50;80.10
16625;DHT22;8426;48.496;9.098;2022-08-21T15:49:01;26.70;81.20
16625;DHT22;8426;48.496;9.098;2022-08-21T15:54:04;26.70;77.50
16625;DHT22;8426;48.496;9.098;2022-08-21T15:59:15;26.50;81.30
16625;DHT22;8426;48.496;9.098;2022-08-21T16:04:22;26.30;80.30
16625;DHT22;8426;48.496;9.098;2022-08-21T16:09:26;26.40;82.10
16625;DHT22;8426;48.496;9.098;2022-08-21T16:14:32;26.30;82.10
16625;DHT22;8426;48.496;9.098;2022-08-21T16:19:38;26.20;82.50
16625;DHT22;8426;48.496;9.098;2022-08-21T16:24:41;26.00;83.40
16625;DHT22;8426;48.496;9.098;2022-08-21T16:29:47;26.00;84.60
16625;DHT22;8426;48.496;9.098;2022-08-21T16:34:51;25.80;82.10
16625;DHT22;8426;48.496;9.098;2022-08-21T16:39:55;25.60;83.60
16625;DHT22;8426;48.496;9.098;2022-08-21T16:45:00;25.60;84.70
16625;DHT22;8426;48.496;9.098;2022-08-21T16:50:06;25.40;85.30
16625;DHT22;8426;48.496;9.098;2022-08-21T16:55:11;25.20;85.50
16625;DHT22;8426;48.496;9.098;2022-08-21T17:00:19;25.00;87.20
16625;DHT22;8426;48.496;9.098;2022-08-21T17:05:25;24.80;87.70
16625;DHT22;8426;48.496;9.098;2022-08-21T17:10:31;24.60;87.80
16625;DHT22;8426;48.496;9.098;2022-08-21T17:15:37;24.40;88.90
16625;DHT22;8426;48.496;9.098;2022-08-21T17:20:41;24.30;89.50
16625;DHT22;8426;48.496;9.098;2022-08-21T17:25:50;24.00;90.80
16625;DHT22;8426;48.496;9.098;2022-08-21T17:30:57;23.80;90.80
16625;DHT22;8426;48.496;9.098;2022-08-21T17:36:11;23.50;91.30
16625;DHT22;8426;48.496;9.098;2022-08-21T17:41:16;23.30;92.00
16625;DHT22;8426;48.496;9.098;2022-08-21T17:46:27;23.10;92.40
16625;DHT22;8426;48.496;9.098;2022-08-21T17:51:30;22.80;92.70
16625;DHT22;8426;48.496;9.098;2022-08-21T17:56:37;22.60;92.90
16625;DHT22;8426;48.496;9.098;2022-08-21T18:01:43;22.30;94.10
16625;DHT22;8426;48.496;9.098;2022-08-21T18:06:47;22.00;94.80
16625;DHT22;8426;48.496;9.098;2022-08-21T18:11:51;21.60;95.90
16625;DHT22;8426;48.496;9.098;2022-08-21T18:16:57;21.30;96.80
16625;DHT22;8426;48.496;9.098;2022-08-21T18:22:01;20.90;97.30
16625;DHT22;8426;48.496;9.098;2022-08-21T18:27:12;20.60;98.00
16625;DHT22;8426;48.496;9.098;2022-08-21T18:32:23;20.30;99.90
16625;DHT22;8426;48.496;9.098;2022-08-21T18:37:32;20.00;99.90
16625;DHT22;8426;48.496;9.098;2022-08-21T18:42:39;19.70;99.90
16625;DHT22;8426;48.496;9.098;2022-08-21T18:47:57;19.50;99.90
16625;DHT22;8426;48.496;9.098;2022-08-21T18:53:03;19.30;99.90
16625;DHT22;8426;48.496;9.098;2022-08-21T18:58:27;19.10;99.90
16625;DHT22;8426;48.496;9.098;2022-08-21T19:03:32;19.00;99.90
16625;DHT22;8426;48.496;9.098;2022-08-21T19:08:35;18.80;99.90
16625;DHT22;8426;48.496;9.098;2022-08-21T19:13:39;18.70;99.90
16625;DHT22;8426;48.496;9.098;2022-08-21T19:18:45;18.60;99.90
16625;DHT22;8426;48.496;9.098;2022-08-21T19:23:51;18.40;99.90
16625;DHT22;8426;48.496;9.098;2022-08-21T19:28:56;18.30;99.90
16625;DHT22;8426;48.496;9.098;2022-08-21T19:34:05;18.10;99.90
16625;DHT22;8426;48.496;9.098;2022-08-21T19:39:09;18.00;99.90
16625;DHT22;8426;48.496;9.098;2022-08-21T19:44:15;17.80;99.90
16625;DHT22;8426;48.496;9.098;2022-08-21T19:49:27;17.60;99.90
16625;DHT22;8426;48.496;9.098;2022-08-21T19:54:52;17.50;99.90
16625;DHT22;8426;48.496;9.098;2022-08-21T19:59:56;17.30;99.90
16625;DHT22;8426;48.496;9.098;2022-08-21T20:05:00;17.10;99.90
16625;DHT22;8426;48.496;9.098;2022-08-21T20:10:05;17.00;99.90
16625;DHT22;8426;48.496;9.098;2022-08-21T20:15:11;16.90;99.90
16625;DHT22;8426;48.496;9.098;2022-08-21T20:20:17;17.00;99.90
16625;DHT22;8426;48.496;9.098;2022-08-21T20:25:25;16.90;99.90
16625;DHT22;8426;48.496;9.098;2022-08-21T20:30:30;16.90;99.90
16625;DHT22;8426;48.496;9.098;2022-08-21T20:35:35;16.80;99.90
16625;DHT22;8426;48.496;9.098;2022-08-21T20:40:39;16.80;99.90
16625;DHT22;8426;48.496;9.098;2022-08-21T20:45:42;16.80;99.90
16625;DHT22;8426;48.496;9.098;2022-08-21T20:50:51;16.90;99.90
16625;DHT22;8426;48.496;9.098;2022-08-21T20:55:55;16.90;99.90
16625;DHT22;8426;48.496;9.098;2022-08-21T21:01:04;16.90;99.90
16625;DHT22;8426;48.496;9.098;2022-08-21T21:06:13;16.60;99.90
16625;DHT22;8426;48.496;9.098;2022-08-21T21:11:22;16.40;99.90
16625;DHT22;8426;48.496;9.098;2022-08-21T21:16:30;16.20;99.90
16625;DHT22;8426;48.496;9.098;2022-08-21T21:21:39;16.10;99.90
16625;DHT22;8426;48.496;9.098;2022-08-21T21:26:56;16.10;99.90
16625;DHT22;8426;48.496;9.098;2022-08-21T21:31:59;15.90;99.90
16625;DHT22;8426;48.496;9.098;2022-08-21T21:37:06;15.70;99.90
16625;DHT22;8426;48.496;9.098;2022-08-21T21:42:15;15.70;99.90
16625;DHT22;8426;48.496;9.098;2022-08-21T21:47:43;15.70;99.90
16625;DHT22;8426;48.496;9.098;2022-08-21T21:53:01;15.50;99.90
16625;DHT22;8426;48.496;9.098;2022-08-21T21:58:31;15.40;99.90
16625;DHT22;8426;48.496;9.098;2022-08-21T22:03:44;15.30;99.90
16625;DHT22;8426;48.496;9.098;2022-08-21T22:08:56;15.10;99.90
16625;DHT22;8426;48.496;9.098;2022-08-21T22:14:09;14.90;99.90
16625;DHT22;8426;48.496;9.098;2022-08-21T22:19:17;14.80;99.90
16625;DHT22;8426;48.496;9.098;2022-08-21T22:24:26;14.60;99.90
16625;DHT22;8426;48.496;9.098;2022-08-21T22:29:45;14.60;99.90
16625;DHT22;8426;48.496;9.098;2022-08-21T22:35:01;14.50;99.90
16625;DHT22;8426;48.496;9.098;2022-08-21T22:40:07;14.50;99.90
16625;DHT22;8426;48.496;9.098;2022-08-21T22:45:19;14.50;99.90
16625;DHT22;8426;48.496;9.098;2022-08-21T22:50:29;14.50;99.90
16625;DHT22;8426;48.496;9.098;2022-08-21T22:55:39;14.50;99.90
16625;DHT22;8426;48.496;9.098;2022-08-21T23:00:50;14.60;99.90
16625;DHT22;8426;48.496;9.098;2022-08-21T23:05:56;14.50;99.90
16625;DHT22;8426;48.496;9.098;2022-08-21T23:11:05;14.50;99.90
16625;DHT22;8426;48.496;9.098;2022-08-21T23:16:39;14.60;99.90
16625;DHT22;8426;48.496;9.098;2022-08-21T23:21:53;14.50;99.90
16625;DHT22;8426;48.496;9.098;2022-08-21T23:27:09;14.40;99.90
16625;DHT22;8426;48.496;9.098;2022-08-21T23:32:31;14.30;99.90
16625;DHT22;8426;48.496;9.098;2022-08-21T23:37:50;14.30;99.90
16625;DHT22;8426;48.496;9.098;2022-08-21T23:43:05;14.10;99.90
16625;DHT22;8426;48.496;9.098;2022-08-21T23:48:19;14.00;99.90
16625;DHT22;8426;48.496;9.098;2022-08-21T23:53:36;13.90;99.90
16625;DHT22;8426;48.496;9.098;2022-08-21T23:59:00;13.90;99.90
